sensor_id;sensor_type;location;lat;lon;timestamp;pressure;altitude;pressure_sealevel;temperature;humidity
61205;BME280;47068;55.780;37.520;2022-07-11T10:55:33;99149.44;;;30.68;33.19
61205;BME280;47068;55.780;37.520;2022-07-11T11:00:48;99140.63;;;31.16;32.31
61205;BME280;47068;55.780;37.520;2022-07-11T11:03:15;99126.22;;;30.74;34.15
61205;BME280;47068;55.780;37.520;2022-07-11T11:16:41;99122.47;;;31.59;32.04
61205;BME280;47068;55.780;37.520;2022-07-11T11:19:06;99137.22;;;31.63;31.38
61205;BME280;47068;55.780;37.520;2022-07-11T11:21:32;99133.16;;;31.61;31.62
61205;BME280;47068;55.780;37.520;2022-07-11T11:26:50;99170.44;;;31.67;31.12
61205;BME280;47068;55.780;37.520;2022-07-11T11:29:25;99141.47;;;31.69;30.07
61205;BME280;47068;55.780;37.520;2022-07-11T11:31:56;99124.47;;;31.67;29.73
61205;BME280;47068;55.780;37.520;2022-07-11T11:34:23;99125.63;;;31.75;29.34
61205;BME280;47068;55.780;37.520;2022-07-11T11:36:57;99127.63;;;31.83;30.43
61205;BME280;47068;55.780;37.520;2022-07-11T11:39:34;99123.22;;;31.82;29.45
61205;BME280;47068;55.780;37.520;2022-07-11T11:42:02;99115.19;;;31.86;29.91
61205;BME280;47068;55.780;37.520;2022-07-11T11:44:29;99112.47;;;31.94;29.79
61205;BME280;47068;55.780;37.520;2022-07-11T11:46:55;99120.59;;;32.08;29.83
61205;BME280;47068;55.780;37.520;2022-07-11T11:49:20;99144.16;;;31.92;31.28
61205;BME280;47068;55.780;37.520;2022-07-11T11:51:46;99117.41;;;32.15;28.90
61205;BME280;47068;55.780;37.520;2022-07-11T11:54:21;99118.75;;;31.95;29.71
61205;BME280;47068;55.780;37.520;2022-07-11T11:56:47;99116.84;;;32.04;29.36
61205;BME280;47068;55.780;37.520;2022-07-11T11:59:12;99122.69;;;32.11;29.42
61205;BME280;47068;55.780;37.520;2022-07-11T12:01:44;99107.44;;;31.96;29.04
61205;BME280;47068;55.780;37.520;2022-07-11T12:04:11;99113.50;;;32.16;28.58
61205;BME280;47068;55.780;37.520;2022-07-11T12:06:40;99108.19;;;31.88;31.01
61205;BME280;47068;55.780;37.520;2022-07-11T12:09:11;99111.47;;;31.90;29.46
61205;BME280;47068;55.780;37.520;2022-07-11T12:11:45;99111.25;;;32.18;28.36
61205;BME280;47068;55.780;37.520;2022-07-11T12:14:13;99121.66;;;32.29;28.51
61205;BME280;47068;55.780;37.520;2022-07-11T12:16:49;99124.53;;;32.24;28.60
61205;BME280;47068;55.780;37.520;2022-07-11T12:19:20;99118.41;;;32.27;28.89
61205;BME280;47068;55.780;37.520;2022-07-11T12:21:51;99113.19;;;32.17;29.17
61205;BME280;47068;55.780;37.520;2022-07-11T12:24:23;99115.09;;;32.08;28.53
61205;BME280;47068;55.780;37.520;2022-07-11T12:26:49;99113.78;;;32.05;29.36
61205;BME280;47068;55.780;37.520;2022-07-11T12:29:24;99137.97;;;32.17;29.10
61205;BME280;47068;55.780;37.520;2022-07-11T12:31:58;99135.31;;;32.12;29.37
61205;BME280;47068;55.780;37.520;2022-07-11T12:34:42;99117.94;;;31.86;29.64
61205;BME280;47068;55.780;37.520;2022-07-11T12:37:17;99129.63;;;32.00;30.82
61205;BME280;47068;55.780;37.520;2022-07-11T12:39:49;99117.97;;;31.94;30.49
61205;BME280;47068;55.780;37.520;2022-07-11T12:42:30;99129.88;;;31.81;30.58
61205;BME280;47068;55.780;37.520;2022-07-11T12:45:01;99150.53;;;32.01;30.74
61205;BME280;47068;55.780;37.520;2022-07-11T12:47:37;99144.31;;;31.87;31.02
61205;BME280;47068;55.780;37.520;2022-07-11T12:50:26;99136.72;;;31.92;29.89
61205;BME280;47068;55.780;37.520;2022-07-11T12:52:54;99145.09;;;31.79;30.31
61205;BME280;47068;55.780;37.520;2022-07-11T12:55:23;99139.78;;;31.91;30.26
61205;BME280;47068;55.780;37.520;2022-07-11T12:58:09;99131.84;;;31.89;30.44
61205;BME280;47068;55.780;37.520;2022-07-11T13:03:34;99132.63;;;32.21;30.21
61205;BME280;47068;55.780;37.520;2022-07-11T13:06:00;99135.94;;;32.09;31.58
61205;BME280;47068;55.780;37.520;2022-07-11T13:08:33;99139.50;;;32.09;30.12
61205;BME280;47068;55.780;37.520;2022-07-11T13:11:28;99148.59;;;32.10;30.63
61205;BME280;47068;55.780;37.520;2022-07-11T13:13:56;99135.09;;;31.91;31.72
61205;BME280;47068;55.780;37.520;2022-07-11T13:16:21;99135.25;;;31.86;31.03
61205;BME280;47068;55.780;37.520;2022-07-11T13:18:54;99138.34;;;31.93;30.57
61205;BME280;47068;55.780;37.520;2022-07-11T13:21:20;99132.84;;;31.93;31.18
61205;BME280;47068;55.780;37.520;2022-07-11T13:23:45;99138.34;;;31.93;30.73
61205;BME280;47068;55.780;37.520;2022-07-11T13:26:12;99160.34;;;31.93;30.33
61205;BME280;47068;55.780;37.520;2022-07-11T13:28:38;99155.06;;;32.05;29.45
61205;BME280;47068;55.780;37.520;2022-07-11T13:31:06;99133.19;;;32.09;29.63
61205;BME280;47068;55.780;37.520;2022-07-11T13:33:34;99135.44;;;31.98;31.28
61205;BME280;47068;55.780;37.520;2022-07-11T13:36:00;99127.97;;;31.59;31.19
61205;BME280;47068;55.780;37.520;2022-07-11T13:38:26;99135.59;;;31.62;31.29
61205;BME280;47068;55.780;37.520;2022-07-11T13:40:51;99136.28;;;31.68;32.05
61205;BME280;47068;55.780;37.520;2022-07-11T13:43:17;99136.84;;;31.56;32.38
61205;BME280;47068;55.780;37.520;2022-07-11T13:45:44;99137.00;;;31.82;31.36
61205;BME280;47068;55.780;37.520;2022-07-11T13:48:11;99137.22;;;32.03;31.06
61205;BME280;47068;55.780;37.520;2022-07-11T13:50:37;99135.63;;;32.11;30.78
61205;BME280;47068;55.780;37.520;2022-07-11T13:53:02;99123.94;;;31.88;31.03
61205;BME280;47068;55.780;37.520;2022-07-11T13:55:28;99133.31;;;31.87;31.42
61205;BME280;47068;55.780;37.520;2022-07-11T13:57:56;99129.28;;;31.93;31.24
61205;BME280;47068;55.780;37.520;2022-07-11T14:00:24;99132.25;;;31.65;31.88
61205;BME280;47068;55.780;37.520;2022-07-11T14:02:50;99123.22;;;31.82;31.64
61205;BME280;47068;55.780;37.520;2022-07-11T14:05:16;99117.06;;;31.77;31.71
61205;BME280;47068;55.780;37.520;2022-07-11T14:07:43;99127.09;;;31.73;32.59
61205;BME280;47068;55.780;37.520;2022-07-11T14:10:09;99132.75;;;31.76;31.10
61205;BME280;47068;55.780;37.520;2022-07-11T14:12:37;99132.25;;;31.65;31.11
61205;BME280;47068;55.780;37.520;2022-07-11T14:15:10;99136.22;;;31.59;31.47
61205;BME280;47068;55.780;37.520;2022-07-11T14:17:37;99138.34;;;31.62;32.28
61205;BME280;47068;55.780;37.520;2022-07-11T14:20:03;99138.06;;;31.64;32.13
61205;BME280;47068;55.780;37.520;2022-07-11T14:22:29;99139.72;;;31.51;31.86
61205;BME280;47068;55.780;37.520;2022-07-11T14:24:54;99152.66;;;31.51;31.76
61205;BME280;47068;55.780;37.520;2022-07-11T14:27:20;99138.88;;;31.42;31.33
61205;BME280;47068;55.780;37.520;2022-07-11T14:29:46;99156.72;;;31.53;30.85
61205;BME280;47068;55.780;37.520;2022-07-11T14:32:15;99152.25;;;31.35;31.26
61205;BME280;47068;55.780;37.520;2022-07-11T14:34:43;99149.84;;;31.42;32.06
61205;BME280;47068;55.780;37.520;2022-07-11T14:37:08;99151.94;;;31.37;31.63
61205;BME280;47068;55.780;37.520;2022-07-11T14:39:34;99148.13;;;31.24;32.73
61205;BME280;47068;55.780;37.520;2022-07-11T14:42:01;99147.91;;;31.12;32.14
61205;BME280;47068;55.780;37.520;2022-07-11T14:44:27;99155.13;;;31.08;33.33
61205;BME280;47068;55.780;37.520;2022-07-11T14:46:54;99129.09;;;30.91;33.21
61205;BME280;47068;55.780;37.520;2022-07-11T14:49:19;99133.59;;;30.87;34.00
61205;BME280;47068;55.780;37.520;2022-07-11T14:51:45;99145.56;;;31.05;33.29
61205;BME280;47068;55.780;37.520;2022-07-11T14:54:10;99148.38;;;31.14;33.40
61205;BME280;47068;55.780;37.520;2022-07-11T14:56:38;99151.44;;;30.99;33.34
61205;BME280;47068;55.780;37.520;2022-07-11T14:59:04;99148.00;;;31.07;33.02
61205;BME280;47068;55.780;37.520;2022-07-11T15:01:30;99127.06;;;30.97;32.75
61205;BME280;47068;55.780;37.520;2022-07-11T15:03:57;99143.09;;;31.04;32.11
61205;BME280;47068;55.780;37.520;2022-07-11T15:06:22;99142.81;;;31.05;31.96
61205;BME280;47068;55.780;37.520;2022-07-11T15:09:08;99129.31;;;30.95;32.46
61205;BME280;47068;55.780;37.520;2022-07-11T15:11:52;99144.03;;;30.99;32.38
61205;BME280;47068;55.780;37.520;2022-07-11T15:14:36;99150.19;;;31.18;31.88
61205;BME280;47068;55.780;37.520;2022-07-11T15:17:02;99130.59;;;31.11;31.75
61205;BME280;47068;55.780;37.520;2022-07-11T15:19:27;99137.06;;;31.15;31.76
61205;BME280;47068;55.780;37.520;2022-07-11T15:21:53;99152.44;;;31.16;31.87
61205;BME280;47068;55.780;37.520;2022-07-11T15:24:18;99141.25;;;31.13;32.21
61205;BME280;47068;55.780;37.520;2022-07-11T15:26:43;99132.53;;;31.11;32.00
61205;BME280;47068;55.780;37.520;2022-07-11T15:29:09;99139.50;;;31.17;31.93
61205;BME280;47068;55.780;37.520;2022-07-11T15:31:35;99137.25;;;31.19;31.94
61205;BME280;47068;55.780;37.520;2022-07-11T15:34:00;99136.25;;;31.15;33.00
61205;BME280;47068;55.780;37.520;2022-07-11T15:36:26;99147.19;;;31.06;32.49
61205;BME280;47068;55.780;37.520;2022-07-11T15:38:51;99142.19;;;30.72;33.89
61205;BME280;47068;55.780;37.520;2022-07-11T15:41:17;99149.56;;;30.85;33.09
61205;BME280;47068;55.780;37.520;2022-07-11T15:43:43;99147.59;;;31.00;32.51
61205;BME280;47068;55.780;37.520;2022-07-11T15:46:10;99146.59;;;30.96;32.30
61205;BME280;47068;55.780;37.520;2022-07-11T15:48:36;99145.66;;;31.00;32.61
61205;BME280;47068;55.780;37.520;2022-07-11T15:51:02;99140.28;;;30.95;32.81
61205;BME280;47068;55.780;37.520;2022-07-11T15:53:27;99145.41;;;30.88;32.68
61205;BME280;47068;55.780;37.520;2022-07-11T15:55:53;99143.78;;;30.87;32.78
61205;BME280;47068;55.780;37.520;2022-07-11T15:58:19;99129.56;;;30.71;33.86
61205;BME280;47068;55.780;37.520;2022-07-11T16:00:47;99138.56;;;30.63;34.44
61205;BME280;47068;55.780;37.520;2022-07-11T16:03:13;99151.16;;;30.64;34.06
61205;BME280;47068;55.780;37.520;2022-07-11T16:05:39;99152.88;;;30.74;33.51
61205;BME280;47068;55.780;37.520;2022-07-11T16:08:04;99142.44;;;30.48;33.65
61205;BME280;47068;55.780;37.520;2022-07-11T16:10:30;99155.25;;;30.39;34.38
61205;BME280;47068;55.780;37.520;2022-07-11T16:12:56;99152.22;;;30.55;34.83
61205;BME280;47068;55.780;37.520;2022-07-11T16:15:21;99123.84;;;30.32;34.03
61205;BME280;47068;55.780;37.520;2022-07-11T16:17:47;99155.66;;;30.46;34.80
61205;BME280;47068;55.780;37.520;2022-07-11T16:20:12;99162.16;;;30.37;34.71
61205;BME280;47068;55.780;37.520;2022-07-11T16:22:39;99149.25;;;30.37;34.22
61205;BME280;47068;55.780;37.520;2022-07-11T16:25:08;99150.16;;;30.46;34.21
61205;BME280;47068;55.780;37.520;2022-07-11T16:27:34;99153.50;;;30.57;33.58
61205;BME280;47068;55.780;37.520;2022-07-11T16:30:00;99138.38;;;30.32;34.37
61205;BME280;47068;55.780;37.520;2022-07-11T16:32:27;99139.22;;;30.19;34.15
61205;BME280;47068;55.780;37.520;2022-07-11T16:34:53;99147.34;;;30.10;35.13
61205;BME280;47068;55.780;37.520;2022-07-11T16:37:18;99145.53;;;29.92;34.36
61205;BME280;47068;55.780;37.520;2022-07-11T16:39:44;99138.28;;;30.10;33.89
61205;BME280;47068;55.780;37.520;2022-07-11T16:42:28;99110.72;;;29.74;34.04
61205;BME280;47068;55.780;37.520;2022-07-11T16:45:12;99129.25;;;30.09;35.05
61205;BME280;47068;55.780;37.520;2022-07-11T16:47:37;99132.25;;;29.67;35.90
61205;BME280;47068;55.780;37.520;2022-07-11T16:50:03;99104.94;;;29.62;36.11
61205;BME280;47068;55.780;37.520;2022-07-11T16:52:29;99129.63;;;29.89;35.90
61205;BME280;47068;55.780;37.520;2022-07-11T16:54:57;99125.88;;;29.85;36.37
61205;BME280;47068;55.780;37.520;2022-07-11T16:57:22;99126.00;;;29.80;34.87
61205;BME280;47068;55.780;37.520;2022-07-11T16:59:48;99121.91;;;29.91;34.48
61205;BME280;47068;55.780;37.520;2022-07-11T17:02:14;99113.59;;;29.96;35.44
61205;BME280;47068;55.780;37.520;2022-07-11T17:04:40;99123.25;;;29.80;36.03
61205;BME280;47068;55.780;37.520;2022-07-11T17:07:07;99116.94;;;29.66;35.27
61205;BME280;47068;55.780;37.520;2022-07-11T17:09:34;99109.19;;;29.68;36.00
61205;BME280;47068;55.780;37.520;2022-07-11T17:12:00;99123.72;;;29.55;35.87
61205;BME280;47068;55.780;37.520;2022-07-11T17:14:26;99122.50;;;29.61;34.29
61205;BME280;47068;55.780;37.520;2022-07-11T17:16:51;99109.63;;;29.75;33.59
61205;BME280;47068;55.780;37.520;2022-07-11T17:19:19;99126.38;;;29.73;33.45
61205;BME280;47068;55.780;37.520;2022-07-11T17:21:45;99127.81;;;29.85;33.11
61205;BME280;47068;55.780;37.520;2022-07-11T17:24:10;99124.78;;;29.86;33.39
61205;BME280;47068;55.780;37.520;2022-07-11T17:26:36;99114.69;;;29.68;33.65
61205;BME280;47068;55.780;37.520;2022-07-11T17:29:02;99132.75;;;29.69;33.04
61205;BME280;47068;55.780;37.520;2022-07-11T17:31:27;99127.16;;;29.60;34.68
61205;BME280;47068;55.780;37.520;2022-07-11T17:33:53;99122.91;;;29.68;33.42
61205;BME280;47068;55.780;37.520;2022-07-11T17:36:19;99122.50;;;29.61;33.73
61205;BME280;47068;55.780;37.520;2022-07-11T17:38:45;99118.03;;;29.51;33.80
61205;BME280;47068;55.780;37.520;2022-07-11T17:41:11;99127.50;;;29.59;33.50
61205;BME280;47068;55.780;37.520;2022-07-11T17:43:36;99068.63;;;29.24;33.90
61205;BME280;47068;55.780;37.520;2022-07-11T17:46:02;99111.53;;;29.61;34.19
61205;BME280;47068;55.780;37.520;2022-07-11T17:48:28;99121.81;;;29.83;34.68
61205;BME280;47068;55.780;37.520;2022-07-11T17:50:53;99132.59;;;29.79;34.59
61205;BME280;47068;55.780;37.520;2022-07-11T17:53:20;99143.03;;;29.77;34.47
61205;BME280;47068;55.780;37.520;2022-07-11T17:55:48;99145.06;;;29.71;33.68
61205;BME280;47068;55.780;37.520;2022-07-11T17:58:15;99141.78;;;29.56;34.39
61205;BME280;47068;55.780;37.520;2022-07-11T18:00:43;99151.94;;;29.69;34.04
61205;BME280;47068;55.780;37.520;2022-07-11T18:03:12;99159.47;;;29.63;32.83
61205;BME280;47068;55.780;37.520;2022-07-11T18:05:37;99152.34;;;29.62;32.89
61205;BME280;47068;55.780;37.520;2022-07-11T18:08:04;99171.13;;;29.55;32.94
61205;BME280;47068;55.780;37.520;2022-07-11T18:10:29;99179.44;;;29.50;31.40
61205;BME280;47068;55.780;37.520;2022-07-11T18:12:55;99174.44;;;29.39;31.00
61205;BME280;47068;55.780;37.520;2022-07-11T18:15:20;99195.38;;;29.29;31.66
61205;BME280;47068;55.780;37.520;2022-07-11T18:17:48;99173.59;;;29.19;31.53
61205;BME280;47068;55.780;37.520;2022-07-11T18:20:14;99172.59;;;29.15;31.40
61205;BME280;47068;55.780;37.520;2022-07-11T18:22:42;99196.50;;;29.10;31.35
61205;BME280;47068;55.780;37.520;2022-07-11T18:25:08;99172.25;;;29.03;31.24
61205;BME280;47068;55.780;37.520;2022-07-11T18:27:34;99180.31;;;28.94;31.44
61205;BME280;47068;55.780;37.520;2022-07-11T18:30:02;99186.06;;;28.93;31.09
61205;BME280;47068;55.780;37.520;2022-07-11T18:32:28;99188.81;;;28.93;31.54
61205;BME280;47068;55.780;37.520;2022-07-11T18:34:53;99190.38;;;28.80;31.57
61205;BME280;47068;55.780;37.520;2022-07-11T18:37:19;99200.66;;;28.88;31.51
61205;BME280;47068;55.780;37.520;2022-07-11T18:39:44;99217.97;;;28.84;31.90
61205;BME280;47068;55.780;37.520;2022-07-11T18:42:28;99213.38;;;28.79;33.16
61205;BME280;47068;55.780;37.520;2022-07-11T18:44:54;99209.06;;;28.73;33.39
61205;BME280;47068;55.780;37.520;2022-07-11T18:47:20;99210.59;;;28.60;35.79
61205;BME280;47068;55.780;37.520;2022-07-11T18:49:45;99196.47;;;28.53;35.73
61205;BME280;47068;55.780;37.520;2022-07-11T18:52:20;99145.56;;;28.52;33.47
61205;BME280;47068;55.780;37.520;2022-07-11T18:54:46;99123.97;;;28.70;34.18
61205;BME280;47068;55.780;37.520;2022-07-11T18:57:13;99116.03;;;28.49;33.55
61205;BME280;47068;55.780;37.520;2022-07-11T18:59:38;99090.50;;;28.35;35.48
61205;BME280;47068;55.780;37.520;2022-07-11T19:02:04;99147.94;;;28.40;33.40
61205;BME280;47068;55.780;37.520;2022-07-11T19:04:29;99167.81;;;28.46;32.18
61205;BME280;47068;55.780;37.520;2022-07-11T19:06:55;99188.25;;;28.53;30.87
61205;BME280;47068;55.780;37.520;2022-07-11T19:09:20;99167.56;;;28.42;31.05
61205;BME280;47068;55.780;37.520;2022-07-11T19:11:46;99150.22;;;28.33;31.59
61205;BME280;47068;55.780;37.520;2022-07-11T19:14:12;99158.34;;;28.38;31.34
61205;BME280;47068;55.780;37.520;2022-07-11T19:16:40;99171.13;;;28.43;31.65
61205;BME280;47068;55.780;37.520;2022-07-11T19:19:06;99175.28;;;28.40;32.00
61205;BME280;47068;55.780;37.520;2022-07-11T19:21:32;99176.69;;;28.38;32.78
61205;BME280;47068;55.780;37.520;2022-07-11T19:23:57;99146.78;;;28.23;31.83
61205;BME280;47068;55.780;37.520;2022-07-11T19:26:23;99169.22;;;28.43;31.76
61205;BME280;47068;55.780;37.520;2022-07-11T19:28:48;99173.88;;;28.43;32.01
61205;BME280;47068;55.780;37.520;2022-07-11T19:31:14;99172.56;;;28.40;31.93
61205;BME280;47068;55.780;37.520;2022-07-11T19:33:41;99156.78;;;28.32;31.67
61205;BME280;47068;55.780;37.520;2022-07-11T19:36:06;99163.78;;;28.19;31.78
61205;BME280;47068;55.780;37.520;2022-07-11T19:38:32;99164.59;;;28.20;32.07
61205;BME280;47068;55.780;37.520;2022-07-11T19:41:00;99171.47;;;28.17;31.97
61205;BME280;47068;55.780;37.520;2022-07-11T19:43:25;99178.06;;;28.11;32.02
61205;BME280;47068;55.780;37.520;2022-07-11T19:45:55;99167.81;;;27.98;32.40
61205;BME280;47068;55.780;37.520;2022-07-11T19:48:20;99179.81;;;28.02;32.51
61205;BME280;47068;55.780;37.520;2022-07-11T19:50:46;99194.34;;;27.98;32.83
61205;BME280;47068;55.780;37.520;2022-07-11T19:53:13;99173.94;;;27.90;32.74
61205;BME280;47068;55.780;37.520;2022-07-11T19:55:38;99188.63;;;27.94;32.73
61205;BME280;47068;55.780;37.520;2022-07-11T19:58:22;99205.28;;;27.98;33.02
61205;BME280;47068;55.780;37.520;2022-07-11T20:00:50;99214.13;;;27.90;33.40
61205;BME280;47068;55.780;37.520;2022-07-11T20:03:16;99224.72;;;27.96;33.67
61205;BME280;47068;55.780;37.520;2022-07-11T20:05:43;99248.75;;;27.99;35.08
61205;BME280;47068;55.780;37.520;2022-07-11T20:08:09;99236.31;;;27.49;36.33
61205;BME280;47068;55.780;37.520;2022-07-11T20:10:35;99215.38;;;27.00;37.74
61205;BME280;47068;55.780;37.520;2022-07-11T20:13:01;99221.09;;;26.99;38.02
61205;BME280;47068;55.780;37.520;2022-07-11T20:15:26;99224.72;;;26.84;38.98
61205;BME280;47068;55.780;37.520;2022-07-11T20:17:52;99202.38;;;26.82;38.89
61205;BME280;47068;55.780;37.520;2022-07-11T20:20:18;99203.41;;;26.86;38.97
61205;BME280;47068;55.780;37.520;2022-07-11T20:22:43;99203.47;;;26.81;39.09
61205;BME280;47068;55.780;37.520;2022-07-11T20:25:10;99198.94;;;26.56;39.91
61205;BME280;47068;55.780;37.520;2022-07-11T20:27:36;99211.75;;;26.56;39.77
61205;BME280;47068;55.780;37.520;2022-07-11T20:30:03;99221.91;;;26.45;39.82
61205;BME280;47068;55.780;37.520;2022-07-11T20:32:30;99206.44;;;26.20;40.35
61205;BME280;47068;55.780;37.520;2022-07-11T20:34:55;99220.59;;;26.22;40.33
61205;BME280;47068;55.780;37.520;2022-07-11T20:37:21;99227.69;;;26.23;40.49
61205;BME280;47068;55.780;37.520;2022-07-11T20:39:46;99229.88;;;26.16;40.50
61205;BME280;47068;55.780;37.520;2022-07-11T20:42:12;99236.16;;;26.17;40.75
61205;BME280;47068;55.780;37.520;2022-07-11T20:44:37;99220.59;;;26.17;40.41
61205;BME280;47068;55.780;37.520;2022-07-11T20:47:03;99216.78;;;26.18;40.52
61205;BME280;47068;55.780;37.520;2022-07-11T20:49:29;99213.53;;;26.16;40.22
61205;BME280;47068;55.780;37.520;2022-07-11T20:51:54;99208.09;;;26.11;40.18
61205;BME280;47068;55.780;37.520;2022-07-11T20:54:21;99201.53;;;26.12;40.36
61205;BME280;47068;55.780;37.520;2022-07-11T20:56:47;99187.34;;;26.15;40.54
61205;BME280;47068;55.780;37.520;2022-07-11T20:59:13;99184.63;;;26.20;40.61
61205;BME280;47068;55.780;37.520;2022-07-11T21:01:40;99182.13;;;26.24;40.12
61205;BME280;47068;55.780;37.520;2022-07-11T21:04:06;99195.53;;;26.25;40.15
61205;BME280;47068;55.780;37.520;2022-07-11T21:06:31;99186.81;;;26.18;40.16
61205;BME280;47068;55.780;37.520;2022-07-11T21:08:57;99136.47;;;25.85;40.10
61205;BME280;47068;55.780;37.520;2022-07-11T21:11:25;99175.63;;;26.15;39.95
61205;BME280;47068;55.780;37.520;2022-07-11T21:13:50;99183.50;;;26.21;39.92
61205;BME280;47068;55.780;37.520;2022-07-11T21:16:16;99184.88;;;26.19;40.09
61205;BME280;47068;55.780;37.520;2022-07-11T21:18:41;99188.97;;;26.16;39.59
61205;BME280;47068;55.780;37.520;2022-07-11T21:21:07;99172.13;;;26.04;39.79
61205;BME280;47068;55.780;37.520;2022-07-11T21:23:32;99188.47;;;26.04;39.53
61205;BME280;47068;55.780;37.520;2022-07-11T21:26:00;99208.13;;;25.96;39.75
61205;BME280;47068;55.780;37.520;2022-07-11T21:28:25;99213.59;;;25.91;39.99
61205;BME280;47068;55.780;37.520;2022-07-11T21:30:51;99195.59;;;25.90;40.63
61205;BME280;47068;55.780;37.520;2022-07-11T21:33:19;99201.03;;;25.95;39.99
61205;BME280;47068;55.780;37.520;2022-07-11T21:35:45;99205.13;;;25.87;39.86
61205;BME280;47068;55.780;37.520;2022-07-11T21:38:10;99201.59;;;25.92;39.83
61205;BME280;47068;55.780;37.520;2022-07-11T21:40:36;99207.31;;;25.91;39.83
61205;BME280;47068;55.780;37.520;2022-07-11T21:43:01;99183.34;;;25.93;40.63
61205;BME280;47068;55.780;37.520;2022-07-11T21:45:28;99185.81;;;25.79;39.01
61205;BME280;47068;55.780;37.520;2022-07-11T21:47:56;99181.16;;;25.89;39.55
61205;BME280;47068;55.780;37.520;2022-07-11T21:50:22;99177.34;;;25.91;38.72
61205;BME280;47068;55.780;37.520;2022-07-11T21:52:48;99177.34;;;25.85;39.13
61205;BME280;47068;55.780;37.520;2022-07-11T21:55:15;99177.38;;;25.70;39.61
61205;BME280;47068;55.780;37.520;2022-07-11T21:57:40;99171.13;;;25.70;39.71
61205;BME280;47068;55.780;37.520;2022-07-11T22:00:06;99171.94;;;25.70;39.92
61205;BME280;47068;55.780;37.520;2022-07-11T22:02:37;99170.00;;;25.66;39.68
61205;BME280;47068;55.780;37.520;2022-07-11T22:05:04;99164.88;;;25.64;40.12
61205;BME280;47068;55.780;37.520;2022-07-11T22:07:30;99162.97;;;25.65;40.16
61205;BME280;47068;55.780;37.520;2022-07-11T22:09:56;99162.44;;;25.58;40.22
61205;BME280;47068;55.780;37.520;2022-07-11T22:12:22;99147.13;;;25.57;41.28
61205;BME280;47068;55.780;37.520;2022-07-11T22:14:47;99158.03;;;25.72;40.65
61205;BME280;47068;55.780;37.520;2022-07-11T22:17:12;99176.03;;;25.63;40.80
61205;BME280;47068;55.780;37.520;2022-07-11T22:19:38;99161.84;;;25.40;41.36
61205;BME280;47068;55.780;37.520;2022-07-11T22:22:03;99165.13;;;25.42;41.53
61205;BME280;47068;55.780;37.520;2022-07-11T22:24:29;99155.03;;;25.38;41.78
61205;BME280;47068;55.780;37.520;2022-07-11T22:26:54;99162.94;;;25.34;42.17
61205;BME280;47068;55.780;37.520;2022-07-11T22:29:20;99157.25;;;25.31;42.19
61205;BME280;47068;55.780;37.520;2022-07-11T22:31:46;99176.03;;;25.22;42.42
61205;BME280;47068;55.780;37.520;2022-07-11T22:34:12;99185.81;;;25.18;42.42
61205;BME280;47068;55.780;37.520;2022-07-11T22:36:37;99147.16;;;25.16;42.60
61205;BME280;47068;55.780;37.520;2022-07-11T22:39:03;99158.31;;;25.25;42.59
61205;BME280;47068;55.780;37.520;2022-07-11T22:41:28;99157.75;;;25.18;42.77
61205;BME280;47068;55.780;37.520;2022-07-11T22:43:54;99163.50;;;25.16;42.89
61205;BME280;47068;55.780;37.520;2022-07-11T22:46:19;99166.22;;;25.16;42.72
61205;BME280;47068;55.780;37.520;2022-07-11T22:48:44;99165.13;;;25.07;43.41
61205;BME280;47068;55.780;37.520;2022-07-11T22:51:10;99161.06;;;25.09;43.74
61205;BME280;47068;55.780;37.520;2022-07-11T22:53:36;99095.41;;;24.81;43.73
61205;BME280;47068;55.780;37.520;2022-07-11T22:56:02;99164.03;;;25.13;44.73
61205;BME280;47068;55.780;37.520;2022-07-11T22:58:27;99165.66;;;25.04;44.56
61205;BME280;47068;55.780;37.520;2022-07-11T23:00:52;99168.94;;;25.01;44.73
61205;BME280;47068;55.780;37.520;2022-07-11T23:03:18;99149.31;;;24.94;44.58
61205;BME280;47068;55.780;37.520;2022-07-11T23:05:44;99153.69;;;24.95;44.93
61205;BME280;47068;55.780;37.520;2022-07-11T23:08:10;99158.03;;;24.91;45.20
61205;BME280;47068;55.780;37.520;2022-07-11T23:10:36;99145.53;;;25.00;45.38
61205;BME280;47068;55.780;37.520;2022-07-11T23:13:02;99144.69;;;25.04;44.86
61205;BME280;47068;55.780;37.520;2022-07-11T23:15:27;99146.63;;;25.14;44.88
61205;BME280;47068;55.780;37.520;2022-07-11T23:17:54;99143.63;;;24.95;45.19
61205;BME280;47068;55.780;37.520;2022-07-11T23:20:20;99141.16;;;24.94;45.70
61205;BME280;47068;55.780;37.520;2022-07-11T23:22:46;99147.69;;;24.93;45.67
61205;BME280;47068;55.780;37.520;2022-07-11T23:25:11;99141.41;;;24.82;45.94
61205;BME280;47068;55.780;37.520;2022-07-11T23:27:37;99148.19;;;24.75;46.19
61205;BME280;47068;55.780;37.520;2022-07-11T23:30:03;99147.09;;;24.81;46.22
61205;BME280;47068;55.780;37.520;2022-07-11T23:32:29;99136.22;;;24.86;46.14
61205;BME280;47068;55.780;37.520;2022-07-11T23:34:54;99135.66;;;24.84;46.25
61205;BME280;47068;55.780;37.520;2022-07-11T23:37:20;99148.19;;;24.80;46.36
61205;BME280;47068;55.780;37.520;2022-07-11T23:39:45;99135.94;;;24.72;46.19
61205;BME280;47068;55.780;37.520;2022-07-11T23:42:12;99145.47;;;24.80;46.33
61205;BME280;47068;55.780;37.520;2022-07-11T23:44:40;99165.34;;;24.80;46.25
61205;BME280;47068;55.780;37.520;2022-07-11T23:47:06;99152.53;;;24.76;46.90
61205;BME280;47068;55.780;37.520;2022-07-11T23:49:31;99168.84;;;24.70;46.90
61205;BME280;47068;55.780;37.520;2022-07-11T23:51:57;99167.19;;;24.59;47.52
61205;BME280;47068;55.780;37.520;2022-07-11T23:54:22;99164.47;;;24.59;47.70
61205;BME280;47068;55.780;37.520;2022-07-11T23:56:48;99147.03;;;24.50;47.79
61205;BME280;47068;55.780;37.520;2022-07-11T23:59:13;99163.91;;;24.57;48.07
